sensor_id;sensor_type;location;lat;lon;timestamp;temperature;humidity
75683;HTU21D;64295;44.772;39.872;2022-12-16T00:00:33;7.89;77.56
75683;HTU21D;64295;44.772;39.872;2022-12-16T00:02:59;7.92;77.57
75683;HTU21D;64295;44.772;39.872;2022-12-16T00:05:27;7.91;77.56
75683;HTU21D;64295;44.772;39.872;2022-12-16T00:07:53;7.86;77.69
75683;HTU21D;64295;44.772;39.872;2022-12-16T00:10:20;7.84;77.78
75683;HTU21D;64295;44.772;39.872;2022-12-16T00:12:46;7.84;77.79
75683;HTU21D;64295;44.772;39.872;2022-12-16T00:15:12;7.86;77.82
75683;HTU21D;64295;44.772;39.872;2022-12-16T00:17:38;7.89;77.80
75683;HTU21D;64295;44.772;39.872;2022-12-16T00:20:05;7.91;77.78
75683;HTU21D;64295;44.772;39.872;2022-12-16T00:22:31;7.93;77.75
75683;HTU21D;64295;44.772;39.872;2022-12-16T00:24:56;7.97;77.72
75683;HTU21D;64295;44.772;39.872;2022-12-16T00:27:22;7.96;77.76
75683;HTU21D;64295;44.772;39.872;2022-12-16T00:29:48;7.98;77.77
75683;HTU21D;64295;44.772;39.872;2022-12-16T00:32:14;8.00;77.76
75683;HTU21D;64295;44.772;39.872;2022-12-16T00:34:40;8.01;77.74
75683;HTU21D;64295;44.772;39.872;2022-12-16T00:37:06;8.04;77.75
75683;HTU21D;64295;44.772;39.872;2022-12-16T00:39:32;8.05;77.76
75683;HTU21D;64295;44.772;39.872;2022-12-16T00:41:57;8.07;77.78
75683;HTU21D;64295;44.772;39.872;2022-12-16T00:44:23;8.05;77.78
75683;HTU21D;64295;44.772;39.872;2022-12-16T00:46:49;8.05;77.83
75683;HTU21D;64295;44.772;39.872;2022-12-16T00:49:15;8.05;77.86
75683;HTU21D;64295;44.772;39.872;2022-12-16T00:51:41;8.05;77.94
75683;HTU21D;64295;44.772;39.872;2022-12-16T00:54:07;8.05;77.92
75683;HTU21D;64295;44.772;39.872;2022-12-16T00:56:33;8.04;77.95
75683;HTU21D;64295;44.772;39.872;2022-12-16T00:58:59;8.04;77.98
75683;HTU21D;64295;44.772;39.872;2022-12-16T01:01:26;8.06;77.95
75683;HTU21D;64295;44.772;39.872;2022-12-16T01:03:55;8.04;78.01
75683;HTU21D;64295;44.772;39.872;2022-12-16T01:06:22;8.03;78.01
75683;HTU21D;64295;44.772;39.872;2022-12-16T01:08:48;8.01;78.08
75683;HTU21D;64295;44.772;39.872;2022-12-16T01:11:18;7.99;78.14
75683;HTU21D;64295;44.772;39.872;2022-12-16T01:13:45;7.98;78.17
75683;HTU21D;64295;44.772;39.872;2022-12-16T01:16:11;8.01;78.11
75683;HTU21D;64295;44.772;39.872;2022-12-16T01:18:37;8.04;78.09
75683;HTU21D;64295;44.772;39.872;2022-12-16T01:21:07;8.05;78.07
75683;HTU21D;64295;44.772;39.872;2022-12-16T01:23:35;8.05;78.05
75683;HTU21D;64295;44.772;39.872;2022-12-16T01:26:01;8.06;78.08
75683;HTU21D;64295;44.772;39.872;2022-12-16T01:28:28;8.07;78.10
75683;HTU21D;64295;44.772;39.872;2022-12-16T01:30:58;8.07;78.11
75683;HTU21D;64295;44.772;39.872;2022-12-16T01:33:28;8.07;78.08
75683;HTU21D;64295;44.772;39.872;2022-12-16T01:36:05;8.07;78.14
75683;HTU21D;64295;44.772;39.872;2022-12-16T01:38:31;8.07;78.11
75683;HTU21D;64295;44.772;39.872;2022-12-16T01:40:57;8.07;78.14
75683;HTU21D;64295;44.772;39.872;2022-12-16T01:43:29;8.06;78.15
75683;HTU21D;64295;44.772;39.872;2022-12-16T01:46:01;8.06;78.17
75683;HTU21D;64295;44.772;39.872;2022-12-16T01:51:32;8.06;78.14
75683;HTU21D;64295;44.772;39.872;2022-12-16T01:54:04;8.06;78.16
75683;HTU21D;64295;44.772;39.872;2022-12-16T01:56:32;8.07;78.13
75683;HTU21D;64295;44.772;39.872;2022-12-16T01:59:00;8.07;78.14
75683;HTU21D;64295;44.772;39.872;2022-12-16T02:01:26;8.01;78.24
75683;HTU21D;64295;44.772;39.872;2022-12-16T02:03:54;8.01;78.29
75683;HTU21D;64295;44.772;39.872;2022-12-16T02:06:22;8.03;78.27
75683;HTU21D;64295;44.772;39.872;2022-12-16T02:08:51;8.03;78.29
75683;HTU21D;64295;44.772;39.872;2022-12-16T02:11:43;8.05;78.32
75683;HTU21D;64295;44.772;39.872;2022-12-16T02:14:18;8.08;78.18
75683;HTU21D;64295;44.772;39.872;2022-12-16T02:17:06;8.07;78.19
75683;HTU21D;64295;44.772;39.872;2022-12-16T02:20:56;8.04;78.37
75683;HTU21D;64295;44.772;39.872;2022-12-16T02:23:23;8.15;78.14
75683;HTU21D;64295;44.772;39.872;2022-12-16T02:32:09;8.24;77.83
75683;HTU21D;64295;44.772;39.872;2022-12-16T02:34:58;8.20;78.00
75683;HTU21D;64295;44.772;39.872;2022-12-16T02:37:55;8.18;78.03
75683;HTU21D;64295;44.772;39.872;2022-12-16T02:40:42;8.16;78.06
75683;HTU21D;64295;44.772;39.872;2022-12-16T02:43:16;8.18;78.13
75683;HTU21D;64295;44.772;39.872;2022-12-16T02:45:44;8.17;78.10
75683;HTU21D;64295;44.772;39.872;2022-12-16T02:48:11;8.17;78.12
75683;HTU21D;64295;44.772;39.872;2022-12-16T02:50:50;8.17;78.18
75683;HTU21D;64295;44.772;39.872;2022-12-16T02:53:17;8.13;78.22
75683;HTU21D;64295;44.772;39.872;2022-12-16T02:59:16;8.16;78.14
75683;HTU21D;64295;44.772;39.872;2022-12-16T03:01:50;8.14;78.16
75683;HTU21D;64295;44.772;39.872;2022-12-16T03:04:36;8.14;78.24
75683;HTU21D;64295;44.772;39.872;2022-12-16T03:07:08;8.14;78.21
75683;HTU21D;64295;44.772;39.872;2022-12-16T03:09:37;8.14;78.21
75683;HTU21D;64295;44.772;39.872;2022-12-16T03:12:08;8.13;78.27
75683;HTU21D;64295;44.772;39.872;2022-12-16T03:14:35;8.12;78.35
75683;HTU21D;64295;44.772;39.872;2022-12-16T03:17:05;8.11;78.34
75683;HTU21D;64295;44.772;39.872;2022-12-16T03:19:33;8.08;78.42
75683;HTU21D;64295;44.772;39.872;2022-12-16T03:22:21;8.09;78.52
75683;HTU21D;64295;44.772;39.872;2022-12-16T03:24:48;8.09;78.43
75683;HTU21D;64295;44.772;39.872;2022-12-16T03:27:24;8.09;78.48
75683;HTU21D;64295;44.772;39.872;2022-12-16T03:37:52;8.12;78.42
75683;HTU21D;64295;44.772;39.872;2022-12-16T03:40:20;8.11;78.46
75683;HTU21D;64295;44.772;39.872;2022-12-16T03:42:48;8.11;78.54
75683;HTU21D;64295;44.772;39.872;2022-12-16T03:45:24;8.12;78.58
75683;HTU21D;64295;44.772;39.872;2022-12-16T03:47:51;8.14;78.51
75683;HTU21D;64295;44.772;39.872;2022-12-16T03:50:25;8.14;78.56
75683;HTU21D;64295;44.772;39.872;2022-12-16T03:52:52;8.15;78.51
75683;HTU21D;64295;44.772;39.872;2022-12-16T03:55:18;8.16;78.50
75683;HTU21D;64295;44.772;39.872;2022-12-16T03:57:46;8.14;78.53
75683;HTU21D;64295;44.772;39.872;2022-12-16T04:00:12;8.14;78.57
75683;HTU21D;64295;44.772;39.872;2022-12-16T04:02:38;8.14;78.62
75683;HTU21D;64295;44.772;39.872;2022-12-16T04:05:05;8.14;78.63
75683;HTU21D;64295;44.772;39.872;2022-12-16T04:07:31;8.15;78.64
75683;HTU21D;64295;44.772;39.872;2022-12-16T04:09:57;8.19;78.57
75683;HTU21D;64295;44.772;39.872;2022-12-16T04:12:23;8.22;78.49
75683;HTU21D;64295;44.772;39.872;2022-12-16T04:15:08;8.26;78.45
75683;HTU21D;64295;44.772;39.872;2022-12-16T04:17:53;8.28;78.38
75683;HTU21D;64295;44.772;39.872;2022-12-16T04:20:44;8.31;78.38
75683;HTU21D;64295;44.772;39.872;2022-12-16T04:23:31;8.30;78.36
75683;HTU21D;64295;44.772;39.872;2022-12-16T04:26:16;8.33;78.32
75683;HTU21D;64295;44.772;39.872;2022-12-16T04:28:42;8.35;78.30
75683;HTU21D;64295;44.772;39.872;2022-12-16T04:31:08;8.36;78.29
75683;HTU21D;64295;44.772;39.872;2022-12-16T04:33:34;8.37;78.34
75683;HTU21D;64295;44.772;39.872;2022-12-16T04:36:19;8.39;78.30
75683;HTU21D;64295;44.772;39.872;2022-12-16T04:39:03;8.43;78.23
75683;HTU21D;64295;44.772;39.872;2022-12-16T04:41:52;8.46;78.18
75683;HTU21D;64295;44.772;39.872;2022-12-16T04:44:36;8.50;78.14
75683;HTU21D;64295;44.772;39.872;2022-12-16T04:47:21;8.50;78.09
75683;HTU21D;64295;44.772;39.872;2022-12-16T04:50:05;8.45;78.23
75683;HTU21D;64295;44.772;39.872;2022-12-16T04:52:51;8.43;78.30
75683;HTU21D;64295;44.772;39.872;2022-12-16T04:55:35;8.43;78.30
75683;HTU21D;64295;44.772;39.872;2022-12-16T04:58:20;8.47;78.30
75683;HTU21D;64295;44.772;39.872;2022-12-16T05:01:04;8.49;78.22
75683;HTU21D;64295;44.772;39.872;2022-12-16T05:03:48;8.51;78.19
75683;HTU21D;64295;44.772;39.872;2022-12-16T05:06:33;8.55;78.17
75683;HTU21D;64295;44.772;39.872;2022-12-16T05:09:17;8.60;78.08
75683;HTU21D;64295;44.772;39.872;2022-12-16T05:12:02;8.64;78.04
75683;HTU21D;64295;44.772;39.872;2022-12-16T05:14:47;8.67;78.05
75683;HTU21D;64295;44.772;39.872;2022-12-16T05:17:31;8.71;78.03
75683;HTU21D;64295;44.772;39.872;2022-12-16T05:20:16;8.72;78.05
75683;HTU21D;64295;44.772;39.872;2022-12-16T05:23:00;8.72;78.08
75683;HTU21D;64295;44.772;39.872;2022-12-16T05:25:45;8.73;78.12
75683;HTU21D;64295;44.772;39.872;2022-12-16T05:28:29;8.74;78.18
75683;HTU21D;64295;44.772;39.872;2022-12-16T05:31:14;8.76;78.19
75683;HTU21D;64295;44.772;39.872;2022-12-16T05:34:01;8.78;78.24
75683;HTU21D;64295;44.772;39.872;2022-12-16T05:36:48;8.79;78.27
75683;HTU21D;64295;44.772;39.872;2022-12-16T05:39:33;8.81;78.30
75683;HTU21D;64295;44.772;39.872;2022-12-16T05:42:17;8.81;78.31
75683;HTU21D;64295;44.772;39.872;2022-12-16T05:45:01;8.82;78.37
75683;HTU21D;64295;44.772;39.872;2022-12-16T05:47:48;8.83;78.34
75683;HTU21D;64295;44.772;39.872;2022-12-16T05:50:33;8.83;78.34
75683;HTU21D;64295;44.772;39.872;2022-12-16T05:53:17;8.86;78.37
75683;HTU21D;64295;44.772;39.872;2022-12-16T05:56:01;8.86;78.34
75683;HTU21D;64295;44.772;39.872;2022-12-16T05:58:46;8.90;78.30
75683;HTU21D;64295;44.772;39.872;2022-12-16T06:01:30;8.94;78.24
75683;HTU21D;64295;44.772;39.872;2022-12-16T06:04:14;8.98;78.21
75683;HTU21D;64295;44.772;39.872;2022-12-16T06:06:59;9.00;78.21
75683;HTU21D;64295;44.772;39.872;2022-12-16T06:09:43;9.00;78.25
75683;HTU21D;64295;44.772;39.872;2022-12-16T06:12:28;9.01;78.29
75683;HTU21D;64295;44.772;39.872;2022-12-16T06:15:12;9.03;78.27
75683;HTU21D;64295;44.772;39.872;2022-12-16T06:17:57;9.04;78.27
75683;HTU21D;64295;44.772;39.872;2022-12-16T06:20:41;9.03;78.33
75683;HTU21D;64295;44.772;39.872;2022-12-16T06:23:26;9.03;78.30
75683;HTU21D;64295;44.772;39.872;2022-12-16T06:26:11;9.01;78.40
75683;HTU21D;64295;44.772;39.872;2022-12-16T06:28:55;9.01;78.41
75683;HTU21D;64295;44.772;39.872;2022-12-16T06:31:39;9.00;78.46
75683;HTU21D;64295;44.772;39.872;2022-12-16T06:34:24;9.00;78.51
75683;HTU21D;64295;44.772;39.872;2022-12-16T06:37:08;8.94;78.59
75683;HTU21D;64295;44.772;39.872;2022-12-16T06:39:52;8.98;78.61
75683;HTU21D;64295;44.772;39.872;2022-12-16T06:42:40;9.05;79.04
75683;HTU21D;64295;44.772;39.872;2022-12-16T06:45:24;9.25;78.53
75683;HTU21D;64295;44.772;39.872;2022-12-16T06:48:09;9.27;78.47
75683;HTU21D;64295;44.772;39.872;2022-12-16T06:50:53;9.25;78.52
75683;HTU21D;64295;44.772;39.872;2022-12-16T06:53:38;9.26;78.53
75683;HTU21D;64295;44.772;39.872;2022-12-16T06:56:22;9.29;78.53
75683;HTU21D;64295;44.772;39.872;2022-12-16T06:59:06;9.31;78.53
75683;HTU21D;64295;44.772;39.872;2022-12-16T07:01:50;9.30;78.60
75683;HTU21D;64295;44.772;39.872;2022-12-16T07:04:35;9.27;78.71
75683;HTU21D;64295;44.772;39.872;2022-12-16T07:07:19;9.27;78.82
75683;HTU21D;64295;44.772;39.872;2022-12-16T07:10:04;9.24;78.93
75683;HTU21D;64295;44.772;39.872;2022-12-16T07:12:48;9.19;79.15
75683;HTU21D;64295;44.772;39.872;2022-12-16T07:15:32;9.16;79.30
75683;HTU21D;64295;44.772;39.872;2022-12-16T07:18:16;9.14;79.39
75683;HTU21D;64295;44.772;39.872;2022-12-16T07:21:01;9.14;79.44
75683;HTU21D;64295;44.772;39.872;2022-12-16T07:23:45;9.09;79.56
75683;HTU21D;64295;44.772;39.872;2022-12-16T07:26:29;9.15;79.55
75683;HTU21D;64295;44.772;39.872;2022-12-16T07:29:14;9.19;79.51
75683;HTU21D;64295;44.772;39.872;2022-12-16T07:31:58;9.23;79.49
75683;HTU21D;64295;44.772;39.872;2022-12-16T07:34:42;9.26;79.53
75683;HTU21D;64295;44.772;39.872;2022-12-16T07:37:27;9.30;79.55
75683;HTU21D;64295;44.772;39.872;2022-12-16T07:40:11;9.51;79.24
75683;HTU21D;64295;44.772;39.872;2022-12-16T07:42:56;9.52;79.22
75683;HTU21D;64295;44.772;39.872;2022-12-16T07:45:40;9.42;79.57
75683;HTU21D;64295;44.772;39.872;2022-12-16T07:48:24;9.34;79.90
75683;HTU21D;64295;44.772;39.872;2022-12-16T07:51:09;9.25;80.17
75683;HTU21D;64295;44.772;39.872;2022-12-16T07:53:53;9.24;80.33
75683;HTU21D;64295;44.772;39.872;2022-12-16T07:56:38;9.21;80.52
75683;HTU21D;64295;44.772;39.872;2022-12-16T07:59:22;9.19;80.72
75683;HTU21D;64295;44.772;39.872;2022-12-16T08:02:09;9.20;80.89
75683;HTU21D;64295;44.772;39.872;2022-12-16T08:04:53;9.22;81.04
75683;HTU21D;64295;44.772;39.872;2022-12-16T08:07:50;9.25;81.15
75683;HTU21D;64295;44.772;39.872;2022-12-16T08:10:39;9.29;81.21
75683;HTU21D;64295;44.772;39.872;2022-12-16T08:13:23;9.44;81.39
75683;HTU21D;64295;44.772;39.872;2022-12-16T08:16:07;9.46;81.55
75683;HTU21D;64295;44.772;39.872;2022-12-16T08:18:51;9.41;81.84
75683;HTU21D;64295;44.772;39.872;2022-12-16T08:21:36;9.38;82.21
75683;HTU21D;64295;44.772;39.872;2022-12-16T08:24:20;9.39;82.28
75683;HTU21D;64295;44.772;39.872;2022-12-16T08:27:05;9.44;82.31
75683;HTU21D;64295;44.772;39.872;2022-12-16T08:29:49;9.49;82.29
75683;HTU21D;64295;44.772;39.872;2022-12-16T08:32:33;9.54;82.23
75683;HTU21D;64295;44.772;39.872;2022-12-16T08:35:20;9.59;82.24
75683;HTU21D;64295;44.772;39.872;2022-12-16T08:38:04;9.64;82.33
75683;HTU21D;64295;44.772;39.872;2022-12-16T08:40:49;9.69;82.42
75683;HTU21D;64295;44.772;39.872;2022-12-16T08:43:34;9.78;82.38
75683;HTU21D;64295;44.772;39.872;2022-12-16T08:46:19;9.89;82.22
75683;HTU21D;64295;44.772;39.872;2022-12-16T08:49:04;10.05;82.07
75683;HTU21D;64295;44.772;39.872;2022-12-16T08:51:48;10.14;81.97
75683;HTU21D;64295;44.772;39.872;2022-12-16T08:54:32;10.22;81.97
75683;HTU21D;64295;44.772;39.872;2022-12-16T08:57:17;10.29;81.96
75683;HTU21D;64295;44.772;39.872;2022-12-16T09:00:13;10.38;81.91
75683;HTU21D;64295;44.772;39.872;2022-12-16T09:02:58;10.44;81.93
75683;HTU21D;64295;44.772;39.872;2022-12-16T09:05:43;10.51;81.95
75683;HTU21D;64295;44.772;39.872;2022-12-16T09:08:27;10.55;81.97
75683;HTU21D;64295;44.772;39.872;2022-12-16T09:11:12;10.58;82.10
75683;HTU21D;64295;44.772;39.872;2022-12-16T09:13:56;10.64;82.18
75683;HTU21D;64295;44.772;39.872;2022-12-16T09:16:40;10.70;82.20
75683;HTU21D;64295;44.772;39.872;2022-12-16T09:19:25;10.73;82.24
75683;HTU21D;64295;44.772;39.872;2022-12-16T09:22:09;10.75;82.34
75683;HTU21D;64295;44.772;39.872;2022-12-16T09:24:53;10.75;82.46
75683;HTU21D;64295;44.772;39.872;2022-12-16T09:27:40;10.79;82.52
75683;HTU21D;64295;44.772;39.872;2022-12-16T09:30:25;10.83;82.49
75683;HTU21D;64295;44.772;39.872;2022-12-16T09:33:09;10.85;82.52
75683;HTU21D;64295;44.772;39.872;2022-12-16T09:35:54;10.88;82.52
75683;HTU21D;64295;44.772;39.872;2022-12-16T09:38:38;10.93;82.49
75683;HTU21D;64295;44.772;39.872;2022-12-16T09:47:19;11.12;82.46
75683;HTU21D;64295;44.772;39.872;2022-12-16T09:50:27;11.17;82.40
75683;HTU21D;64295;44.772;39.872;2022-12-16T09:53:16;11.24;82.29
75683;HTU21D;64295;44.772;39.872;2022-12-16T09:56:09;11.28;82.26
75683;HTU21D;64295;44.772;39.872;2022-12-16T09:58:59;11.29;82.27
75683;HTU21D;64295;44.772;39.872;2022-12-16T10:01:45;11.28;82.32
75683;HTU21D;64295;44.772;39.872;2022-12-16T10:04:30;11.24;82.45
75683;HTU21D;64295;44.772;39.872;2022-12-16T10:07:28;11.26;82.57
75683;HTU21D;64295;44.772;39.872;2022-12-16T10:10:45;11.30;82.55
75683;HTU21D;64295;44.772;39.872;2022-12-16T10:13:45;11.36;82.44
75683;HTU21D;64295;44.772;39.872;2022-12-16T10:22:42;11.49;82.44
75683;HTU21D;64295;44.772;39.872;2022-12-16T10:29:05;11.54;82.39
75683;HTU21D;64295;44.772;39.872;2022-12-16T10:31:58;11.57;82.27
75683;HTU21D;64295;44.772;39.872;2022-12-16T10:34:43;11.61;82.26
75683;HTU21D;64295;44.772;39.872;2022-12-16T10:37:37;11.62;82.31
75683;HTU21D;64295;44.772;39.872;2022-12-16T10:40:25;11.63;82.33
75683;HTU21D;64295;44.772;39.872;2022-12-16T10:43:12;0.00;82.20
75683;HTU21D;64295;44.772;39.872;2022-12-16T10:45:59;11.64;82.10
75683;HTU21D;64295;44.772;39.872;2022-12-16T10:48:44;11.68;82.18
75683;HTU21D;64295;44.772;39.872;2022-12-16T10:51:29;11.73;82.19
75683;HTU21D;64295;44.772;39.872;2022-12-16T10:54:24;11.75;82.27
75683;HTU21D;64295;44.772;39.872;2022-12-16T11:00:11;11.76;82.39
75683;HTU21D;64295;44.772;39.872;2022-12-16T11:03:32;11.99;82.20
75683;HTU21D;64295;44.772;39.872;2022-12-16T11:06:39;12.05;81.98
75683;HTU21D;64295;44.772;39.872;2022-12-16T11:09:35;12.05;81.94
75683;HTU21D;64295;44.772;39.872;2022-12-16T11:12:28;12.14;81.97
75683;HTU21D;64295;44.772;39.872;2022-12-16T11:18:11;11.99;82.39
75683;HTU21D;64295;44.772;39.872;2022-12-16T11:21:11;12.00;82.49
75683;HTU21D;64295;44.772;39.872;2022-12-16T11:24:15;11.98;82.46
75683;HTU21D;64295;44.772;39.872;2022-12-16T11:27:05;11.98;82.46
75683;HTU21D;64295;44.772;39.872;2022-12-16T11:29:59;11.94;82.55
75683;HTU21D;64295;44.772;39.872;2022-12-16T11:32:53;11.92;82.62
75683;HTU21D;64295;44.772;39.872;2022-12-16T11:36:07;12.00;82.46
75683;HTU21D;64295;44.772;39.872;2022-12-16T11:38:53;12.00;82.38
75683;HTU21D;64295;44.772;39.872;2022-12-16T11:41:43;11.96;82.54
75683;HTU21D;64295;44.772;39.872;2022-12-16T11:44:38;11.92;82.62
75683;HTU21D;64295;44.772;39.872;2022-12-16T11:47:45;11.88;82.71
75683;HTU21D;64295;44.772;39.872;2022-12-16T11:50:40;11.81;82.87
75683;HTU21D;64295;44.772;39.872;2022-12-16T12:05:04;11.88;82.64
75683;HTU21D;64295;44.772;39.872;2022-12-16T12:08:19;11.89;82.71
75683;HTU21D;64295;44.772;39.872;2022-12-16T12:11:51;11.93;82.62
75683;HTU21D;64295;44.772;39.872;2022-12-16T12:14:50;11.96;82.65
75683;HTU21D;64295;44.772;39.872;2022-12-16T12:31:30;12.07;82.56
75683;HTU21D;64295;44.772;39.872;2022-12-16T12:34:27;12.10;82.51
75683;HTU21D;64295;44.772;39.872;2022-12-16T12:37:29;12.14;82.54
75683;HTU21D;64295;44.772;39.872;2022-12-16T12:40:43;12.18;82.42
75683;HTU21D;64295;44.772;39.872;2022-12-16T12:43:59;12.33;82.30
75683;HTU21D;64295;44.772;39.872;2022-12-16T12:46:52;12.37;82.20
75683;HTU21D;64295;44.772;39.872;2022-12-16T12:50:32;12.40;82.24
75683;HTU21D;64295;44.772;39.872;2022-12-16T12:53:21;12.37;82.33
75683;HTU21D;64295;44.772;39.872;2022-12-16T12:56:49;12.37;82.39
75683;HTU21D;64295;44.772;39.872;2022-12-16T13:02:23;12.35;82.53
75683;HTU21D;64295;44.772;39.872;2022-12-16T13:05:13;12.36;82.65
75683;HTU21D;64295;44.772;39.872;2022-12-16T13:08:30;12.36;82.63
75683;HTU21D;64295;44.772;39.872;2022-12-16T13:11:14;12.32;82.75
75683;HTU21D;64295;44.772;39.872;2022-12-16T13:13:59;12.33;82.84
75683;HTU21D;64295;44.772;39.872;2022-12-16T13:22:31;12.18;83.09
75683;HTU21D;64295;44.772;39.872;2022-12-16T13:25:48;12.12;83.21
75683;HTU21D;64295;44.772;39.872;2022-12-16T13:28:40;12.06;83.26
75683;HTU21D;64295;44.772;39.872;2022-12-16T13:31:27;12.03;83.33
75683;HTU21D;64295;44.772;39.872;2022-12-16T13:37:01;11.91;83.47
75683;HTU21D;64295;44.772;39.872;2022-12-16T13:46:51;11.72;83.52
75683;HTU21D;64295;44.772;39.872;2022-12-16T13:49:39;11.70;83.47
75683;HTU21D;64295;44.772;39.872;2022-12-16T13:55:32;11.63;83.52
75683;HTU21D;64295;44.772;39.872;2022-12-16T14:01:46;11.69;83.83
75683;HTU21D;64295;44.772;39.872;2022-12-16T14:04:35;11.81;83.33
75683;HTU21D;64295;44.772;39.872;2022-12-16T14:07:20;11.82;83.10
75683;HTU21D;64295;44.772;39.872;2022-12-16T14:10:05;11.81;82.91
75683;HTU21D;64295;44.772;39.872;2022-12-16T14:13:13;11.83;82.82
75683;HTU21D;64295;44.772;39.872;2022-12-16T14:25:19;11.99;82.39
75683;HTU21D;64295;44.772;39.872;2022-12-16T14:28:35;12.01;82.33
75683;HTU21D;64295;44.772;39.872;2022-12-16T14:34:14;12.04;82.23
75683;HTU21D;64295;44.772;39.872;2022-12-16T14:40:32;12.10;82.16
75683;HTU21D;64295;44.772;39.872;2022-12-16T14:43:21;12.11;82.09
75683;HTU21D;64295;44.772;39.872;2022-12-16T14:46:24;12.11;82.09
75683;HTU21D;64295;44.772;39.872;2022-12-16T14:52:21;12.15;82.01
75683;HTU21D;64295;44.772;39.872;2022-12-16T14:55:17;12.18;81.88
75683;HTU21D;64295;44.772;39.872;2022-12-16T14:58:13;12.20;81.76
75683;HTU21D;64295;44.772;39.872;2022-12-16T15:01:06;12.16;81.70
75683;HTU21D;64295;44.772;39.872;2022-12-16T15:03:55;12.17;81.60
75683;HTU21D;64295;44.772;39.872;2022-12-16T15:06:41;12.13;81.60
75683;HTU21D;64295;44.772;39.872;2022-12-16T15:09:47;12.13;81.53
75683;HTU21D;64295;44.772;39.872;2022-12-16T15:12:33;12.13;81.43
75683;HTU21D;64295;44.772;39.872;2022-12-16T15:15:25;12.12;81.33
75683;HTU21D;64295;44.772;39.872;2022-12-16T15:18:19;12.10;81.20
75683;HTU21D;64295;44.772;39.872;2022-12-16T15:21:06;12.10;81.13
75683;HTU21D;64295;44.772;39.872;2022-12-16T15:23:58;12.10;81.05
75683;HTU21D;64295;44.772;39.872;2022-12-16T15:26:43;12.11;80.95
75683;HTU21D;64295;44.772;39.872;2022-12-16T15:29:34;12.13;80.87
75683;HTU21D;64295;44.772;39.872;2022-12-16T15:35:36;12.12;80.72
75683;HTU21D;64295;44.772;39.872;2022-12-16T15:38:31;12.13;80.67
75683;HTU21D;64295;44.772;39.872;2022-12-16T15:41:31;12.13;80.60
75683;HTU21D;64295;44.772;39.872;2022-12-16T15:44:26;12.13;80.55
75683;HTU21D;64295;44.772;39.872;2022-12-16T15:50:04;12.08;80.42
75683;HTU21D;64295;44.772;39.872;2022-12-16T15:52:49;12.01;80.49
75683;HTU21D;64295;44.772;39.872;2022-12-16T15:55:39;11.97;80.50
75683;HTU21D;64295;44.772;39.872;2022-12-16T15:58:30;11.93;80.43
75683;HTU21D;64295;44.772;39.872;2022-12-16T16:01:20;11.87;80.41
75683;HTU21D;64295;44.772;39.872;2022-12-16T16:04:25;11.79;80.54
75683;HTU21D;64295;44.772;39.872;2022-12-16T16:07:18;11.75;80.56
75683;HTU21D;64295;44.772;39.872;2022-12-16T16:10:20;11.70;80.53
75683;HTU21D;64295;44.772;39.872;2022-12-16T16:13:05;11.68;80.52
75683;HTU21D;64295;44.772;39.872;2022-12-16T16:15:50;11.64;80.47
75683;HTU21D;64295;44.772;39.872;2022-12-16T16:18:38;11.59;80.48
75683;HTU21D;64295;44.772;39.872;2022-12-16T16:21:42;11.54;80.56
75683;HTU21D;64295;44.772;39.872;2022-12-16T16:24:27;11.52;80.59
75683;HTU21D;64295;44.772;39.872;2022-12-16T16:27:13;11.47;80.56
75683;HTU21D;64295;44.772;39.872;2022-12-16T16:29:58;11.47;80.46
75683;HTU21D;64295;44.772;39.872;2022-12-16T16:32:42;11.45;80.36
75683;HTU21D;64295;44.772;39.872;2022-12-16T16:35:29;11.44;80.31
75683;HTU21D;64295;44.772;39.872;2022-12-16T16:38:14;11.42;80.19
75683;HTU21D;64295;44.772;39.872;2022-12-16T16:40:59;11.41;80.03
75683;HTU21D;64295;44.772;39.872;2022-12-16T16:43:43;11.41;79.92
75683;HTU21D;64295;44.772;39.872;2022-12-16T16:49:27;11.38;79.70
75683;HTU21D;64295;44.772;39.872;2022-12-16T16:52:14;11.36;79.58
75683;HTU21D;64295;44.772;39.872;2022-12-16T16:54:59;11.33;79.51
75683;HTU21D;64295;44.772;39.872;2022-12-16T16:57:43;11.31;79.42
75683;HTU21D;64295;44.772;39.872;2022-12-16T17:00:28;11.33;79.61
75683;HTU21D;64295;44.772;39.872;2022-12-16T17:03:12;11.34;79.41
75683;HTU21D;64295;44.772;39.872;2022-12-16T17:05:57;11.27;79.52
75683;HTU21D;64295;44.772;39.872;2022-12-16T17:08:41;11.18;79.69
75683;HTU21D;64295;44.772;39.872;2022-12-16T17:11:26;11.09;79.85
75683;HTU21D;64295;44.772;39.872;2022-12-16T17:14:12;11.01;80.01
75683;HTU21D;64295;44.772;39.872;2022-12-16T17:17:09;10.95;80.13
75683;HTU21D;64295;44.772;39.872;2022-12-16T17:19:53;10.89;80.20
75683;HTU21D;64295;44.772;39.872;2022-12-16T17:22:37;10.89;80.35
75683;HTU21D;64295;44.772;39.872;2022-12-16T17:25:22;10.89;80.33
75683;HTU21D;64295;44.772;39.872;2022-12-16T17:28:06;10.86;80.33
75683;HTU21D;64295;44.772;39.872;2022-12-16T17:30:50;10.84;80.67
75683;HTU21D;64295;44.772;39.872;2022-12-16T17:33:34;10.87;80.63
75683;HTU21D;64295;44.772;39.872;2022-12-16T17:36:19;10.87;80.46
75683;HTU21D;64295;44.772;39.872;2022-12-16T17:39:04;10.82;80.38
75683;HTU21D;64295;44.772;39.872;2022-12-16T17:41:50;10.77;80.45
75683;HTU21D;64295;44.772;39.872;2022-12-16T17:44:35;10.74;80.46
75683;HTU21D;64295;44.772;39.872;2022-12-16T17:47:20;10.73;80.36
75683;HTU21D;64295;44.772;39.872;2022-12-16T17:50:04;10.74;80.22
75683;HTU21D;64295;44.772;39.872;2022-12-16T17:52:53;10.72;80.08
75683;HTU21D;64295;44.772;39.872;2022-12-16T17:55:38;10.71;80.03
75683;HTU21D;64295;44.772;39.872;2022-12-16T17:58:29;10.71;79.89
75683;HTU21D;64295;44.772;39.872;2022-12-16T18:01:14;10.71;79.74
75683;HTU21D;64295;44.772;39.872;2022-12-16T18:03:58;10.72;79.56
75683;HTU21D;64295;44.772;39.872;2022-12-16T18:06:43;10.73;79.38
75683;HTU21D;64295;44.772;39.872;2022-12-16T18:09:27;10.75;79.33
75683;HTU21D;64295;44.772;39.872;2022-12-16T18:12:12;10.73;79.25
75683;HTU21D;64295;44.772;39.872;2022-12-16T18:14:56;10.67;79.28
75683;HTU21D;64295;44.772;39.872;2022-12-16T18:17:41;10.62;79.26
75683;HTU21D;64295;44.772;39.872;2022-12-16T18:20:26;10.57;79.24
75683;HTU21D;64295;44.772;39.872;2022-12-16T18:23:11;10.54;79.21
75683;HTU21D;64295;44.772;39.872;2022-12-16T18:25:58;10.53;79.18
75683;HTU21D;64295;44.772;39.872;2022-12-16T18:28:42;10.52;79.12
75683;HTU21D;64295;44.772;39.872;2022-12-16T18:31:26;10.51;79.07
75683;HTU21D;64295;44.772;39.872;2022-12-16T18:34:17;10.49;78.98
75683;HTU21D;64295;44.772;39.872;2022-12-16T18:37:10;10.46;78.88
75683;HTU21D;64295;44.772;39.872;2022-12-16T18:39:55;10.54;78.72
75683;HTU21D;64295;44.772;39.872;2022-12-16T18:42:45;10.65;78.40
75683;HTU21D;64295;44.772;39.872;2022-12-16T18:45:29;10.46;78.58
75683;HTU21D;64295;44.772;39.872;2022-12-16T18:48:14;10.29;78.88
75683;HTU21D;64295;44.772;39.872;2022-12-16T18:50:58;10.12;79.08
75683;HTU21D;64295;44.772;39.872;2022-12-16T18:53:43;9.98;79.18